Time;durP1;ratioP1;P1;durP2;ratioP2;P2;SDS_P1;SDS_P2;PMS_P1;PMS_P2;Temp;Humidity;BMP_temperature;BMP_pressure;BME280_temperature;BME280_humidity;BME280_pressure;Samples;Min_cycle;Max_cycle;Signal;HPM_P1;HPM_P2
2021/03/30 00:00:36;;;;;;;;;;;22.40;28.30;;;;;;5054884;28;20342;-56
2021/03/30 00:03:02;;;;;;;;;;;22.40;28.30;;;;;;5054711;28;19912;-57
2021/03/30 00:05:28;;;;;;;;;;;22.40;28.40;;;;;;5055683;28;19931;-56
2021/03/30 00:07:53;;;;;;;;;;;22.40;28.40;;;;;;5054134;28;19908;-57
2021/03/30 00:10:22;;;;;;;;;;;22.40;28.40;;;;;;5055135;28;19924;-58
2021/03/30 00:12:47;;;;;;;;;;;22.40;28.40;;;;;;5055366;28;19920;-59
2021/03/30 00:15:13;;;;;;;;;;;22.40;28.40;;;;;;5054771;28;20057;-55
2021/03/30 00:17:39;;;;;;;;;;;22.40;28.40;;;;;;5055105;28;19909;-61
2021/03/30 00:20:09;;;;;;;;;;;22.40;28.50;;;;;;5054703;28;19913;-55
2021/03/30 00:22:35;;;;;;;;;;;22.40;28.50;;;;;;5055052;28;19940;-53
2021/03/30 00:25:01;;;;;;;;;;;22.40;28.50;;;;;;5054697;28;19925;-61
2021/03/30 00:27:26;;;;;;;;;;;22.40;28.50;;;;;;5054615;28;19951;-51
2021/03/30 00:29:52;;;;;;;;;;;22.40;28.50;;;;;;5054893;28;19912;-56
2021/03/30 00:32:17;;;;;;;;;;;22.30;28.50;;;;;;5054767;28;19909;-57
2021/03/30 00:34:43;;;;;;;;;;;22.30;28.50;;;;;;5054202;28;19948;-54
2021/03/30 00:37:09;;;;;;;;;;;22.30;28.50;;;;;;5054552;28;19912;-54
2021/03/30 00:39:34;;;;;;;;;;;22.40;28.50;;;;;;5039740;28;19909;-55
2021/03/30 00:42:00;;;;;;;;;;;22.30;28.50;;;;;;5048208;28;20340;-58
2021/03/30 00:44:26;;;;;;;;;;;22.30;28.50;;;;;;5054698;28;20252;-55
2021/03/30 00:46:52;;;;;;;;;;;22.30;28.50;;;;;;5054358;28;19948;-56
2021/03/30 00:49:19;;;;;;;;;;;22.30;28.50;;;;;;5053030;28;19955;-56
2021/03/30 00:51:46;;;;;;;;;;;22.30;28.60;;;;;;5054100;28;19916;-56
2021/03/30 00:54:38;;;;;;;;;;;22.30;28.60;;;;;;5026332;28;20008;-52
2021/03/30 00:57:08;;;;;;;;;;;22.20;28.60;;;;;;5047405;28;19909;-56
2021/03/30 00:59:33;;;;;;;;;;;22.30;28.60;;;;;;5054293;28;19908;-55
2021/03/30 01:02:00;;;;;;;;;;;22.20;28.60;;;;;;5054125;28;19936;-54
2021/03/30 01:04:26;;;;;;;;;;;22.30;28.60;;;;;;5054297;28;19971;-54
2021/03/30 01:06:51;;;;;;;;;;;22.20;28.60;;;;;;5051626;28;20425;-52
2021/03/30 01:09:52;;;;;;;;;;;22.20;28.60;;;;;;5054330;28;20000;-50
2021/03/30 01:12:23;;;;;;;;;;;22.20;28.60;;;;;;4971491;28;19953;-57
2021/03/30 01:15:27;;;;;;;;;;;22.20;28.70;;;;;;5040518;28;20340;-54
2021/03/30 01:18:05;;;;;;;;;;;22.20;28.70;;;;;;4987434;28;20333;-52
2021/03/30 01:20:30;;;;;;;;;;;22.20;28.70;;;;;;4993280;28;20351;-54
2021/03/30 01:23:15;;;;;;;;;;;22.20;28.70;;;;;;5011754;28;20011;-52
2021/03/30 01:25:43;;;;;;;;;;;22.10;28.70;;;;;;5063101;28;20002;-51
2021/03/30 01:28:19;;;;;;;;;;;22.10;28.70;;;;;;5053255;28;20017;-52
2021/03/30 01:30:45;;;;;;;;;;;22.20;28.80;;;;;;5054249;28;19920;-51
2021/03/30 01:33:12;;;;;;;;;;;22.10;28.80;;;;;;5053815;28;19923;-55
2021/03/30 01:35:39;;;;;;;;;;;22.10;28.80;;;;;;5053258;28;19908;-58
2021/03/30 01:38:05;;;;;;;;;;;22.10;28.80;;;;;;5053538;28;19909;-52
2021/03/30 01:40:33;;;;;;;;;;;22.10;28.80;;;;;;5053967;28;19912;-61
2021/03/30 01:43:00;;;;;;;;;;;22.10;28.80;;;;;;5054097;28;20034;-51
2021/03/30 01:45:26;;;;;;;;;;;22.10;28.80;;;;;;5048426;28;20011;-53
2021/03/30 01:47:53;;;;;;;;;;;22.10;28.90;;;;;;5035016;28;19913;-57
2021/03/30 01:50:20;;;;;;;;;;;22.10;28.90;;;;;;5053719;28;20228;-54
2021/03/30 01:52:47;;;;;;;;;;;22.10;28.90;;;;;;5053971;28;19909;-58
2021/03/30 01:55:13;;;;;;;;;;;22.10;28.90;;;;;;5051980;28;19956;-57
2021/03/30 01:57:40;;;;;;;;;;;22.10;28.90;;;;;;5054301;28;19932;-60
2021/03/30 02:00:09;;;;;;;;;;;22.10;28.90;;;;;;5053860;28;20015;-59
2021/03/30 02:02:40;;;;;;;;;;;22.10;29.00;;;;;;5054083;28;19981;-58
2021/03/30 02:05:06;;;;;;;;;;;22.00;29.00;;;;;;5050373;28;20259;-53
2021/03/30 02:07:33;;;;;;;;;;;22.00;29.00;;;;;;5054101;28;20331;-54
2021/03/30 02:10:03;;;;;;;;;;;22.00;29.00;;;;;;5053479;28;19919;-49
2021/03/30 02:12:31;;;;;;;;;;;22.00;29.00;;;;;;5053558;28;20383;-57
2021/03/30 02:14:58;;;;;;;;;;;22.00;29.00;;;;;;5053064;28;19909;-58
2021/03/30 02:17:29;;;;;;;;;;;22.00;29.00;;;;;;5055798;28;19912;-54
2021/03/30 02:20:03;;;;;;;;;;;22.00;29.10;;;;;;5055929;28;19915;-50
2021/03/30 02:22:35;;;;;;;;;;;22.00;29.10;;;;;;5057479;28;19921;-56
2021/03/30 02:25:01;;;;;;;;;;;22.00;29.10;;;;;;5056272;28;19927;-55
2021/03/30 02:27:28;;;;;;;;;;;22.00;29.10;;;;;;5057691;28;20291;-56
2021/03/30 02:29:55;;;;;;;;;;;22.00;29.10;;;;;;5056602;28;19909;-56
2021/03/30 02:32:21;;;;;;;;;;;22.00;29.10;;;;;;5056332;28;19912;-56
2021/03/30 02:34:48;;;;;;;;;;;21.90;29.10;;;;;;5055446;28;19919;-52
2021/03/30 02:37:16;;;;;;;;;;;22.00;29.20;;;;;;5057141;28;19970;-53
2021/03/30 02:39:42;;;;;;;;;;;22.00;29.20;;;;;;5056792;28;20315;-60
2021/03/30 02:42:09;;;;;;;;;;;21.90;29.10;;;;;;5056934;28;19917;-50
2021/03/30 02:44:35;;;;;;;;;;;22.00;29.20;;;;;;5057161;28;19909;-55
2021/03/30 02:47:01;;;;;;;;;;;21.90;29.20;;;;;;5055674;28;20209;-55
2021/03/30 02:49:28;;;;;;;;;;;21.90;29.20;;;;;;5057141;28;19919;-55
2021/03/30 02:51:54;;;;;;;;;;;21.90;29.20;;;;;;5056863;28;19912;-54
2021/03/30 02:54:21;;;;;;;;;;;21.90;29.20;;;;;;5056616;28;19912;-51
2021/03/30 02:56:47;;;;;;;;;;;21.90;29.20;;;;;;5056418;28;19909;-56
2021/03/30 02:59:13;;;;;;;;;;;21.90;29.30;;;;;;5056571;28;19977;-55
2021/03/30 03:01:39;;;;;;;;;;;21.90;29.30;;;;;;5055278;28;20288;-50
2021/03/30 03:04:05;;;;;;;;;;;21.90;29.30;;;;;;5056311;28;20006;-52
2021/03/30 03:06:31;;;;;;;;;;;21.80;29.20;;;;;;5055934;28;19959;-55
2021/03/30 03:08:58;;;;;;;;;;;21.90;29.30;;;;;;5056378;28;19920;-57
2021/03/30 03:11:24;;;;;;;;;;;21.80;29.30;;;;;;5056369;28;19977;-57
2021/03/30 03:13:50;;;;;;;;;;;21.90;29.30;;;;;;5056686;28;20243;-58
2021/03/30 03:16:19;;;;;;;;;;;21.80;29.30;;;;;;5056779;28;20341;-52
2021/03/30 03:18:45;;;;;;;;;;;21.80;29.30;;;;;;5055990;28;20403;-57
2021/03/30 03:21:11;;;;;;;;;;;21.80;29.30;;;;;;5056030;28;20007;-51
2021/03/30 03:23:41;;;;;;;;;;;21.80;29.30;;;;;;5056154;28;19916;-55
2021/03/30 03:26:07;;;;;;;;;;;21.80;29.30;;;;;;5055908;28;20243;-54
2021/03/30 03:28:37;;;;;;;;;;;21.80;29.30;;;;;;5055951;28;19912;-58
2021/03/30 03:31:03;;;;;;;;;;;21.80;29.30;;;;;;5050119;28;20298;-56
2021/03/30 03:33:30;;;;;;;;;;;21.80;29.30;;;;;;5056301;28;19932;-56
2021/03/30 03:35:59;;;;;;;;;;;21.80;29.30;;;;;;5055765;28;19920;-52
2021/03/30 03:38:25;;;;;;;;;;;21.80;29.40;;;;;;5056185;28;20007;-59
2021/03/30 03:40:51;;;;;;;;;;;21.80;29.40;;;;;;5055281;28;20000;-55
2021/03/30 03:43:16;;;;;;;;;;;21.80;29.40;;;;;;5055810;28;19916;-54
2021/03/30 03:45:42;;;;;;;;;;;21.70;29.30;;;;;;5055371;28;19908;-58
2021/03/30 03:48:08;;;;;;;;;;;21.70;29.40;;;;;;5055026;28;19944;-55
2021/03/30 03:50:33;;;;;;;;;;;21.70;29.40;;;;;;5055495;28;20232;-55
2021/03/30 03:52:59;;;;;;;;;;;21.70;29.40;;;;;;5055433;28;20283;-53
2021/03/30 03:55:25;;;;;;;;;;;21.70;29.40;;;;;;5054744;28;20300;-51
2021/03/30 03:57:53;;;;;;;;;;;21.70;29.40;;;;;;5055300;28;19995;-54
2021/03/30 04:00:20;;;;;;;;;;;21.70;29.40;;;;;;5054770;28;19919;-56
2021/03/30 04:02:56;;;;;;;;;;;21.70;29.40;;;;;;5055267;28;20267;-52
2021/03/30 04:05:23;;;;;;;;;;;21.70;29.40;;;;;;5053508;28;20347;-54
2021/03/30 04:07:52;;;;;;;;;;;21.70;29.40;;;;;;5055008;28;20239;-57
2021/03/30 04:10:19;;;;;;;;;;;21.70;29.50;;;;;;5055333;28;19919;-50
2021/03/30 04:12:44;;;;;;;;;;;21.70;29.50;;;;;;5055037;28;19919;-56
2021/03/30 04:15:10;;;;;;;;;;;21.70;29.50;;;;;;5054889;28;19912;-57
2021/03/30 04:17:36;;;;;;;;;;;21.70;30.00;;;;;;5055306;28;19967;-54
2021/03/30 04:20:09;;;;;;;;;;;21.60;29.50;;;;;;5052801;28;19917;-60
2021/03/30 04:22:36;;;;;;;;;;;21.70;29.50;;;;;;5053519;28;20232;-53
2021/03/30 04:25:02;;;;;;;;;;;21.70;29.50;;;;;;5055407;28;20259;-59
2021/03/30 04:27:30;;;;;;;;;;;21.60;29.50;;;;;;5053471;28;19908;-54
2021/03/30 04:29:56;;;;;;;;;;;21.60;29.50;;;;;;5054794;28;19919;-61
2021/03/30 04:32:21;;;;;;;;;;;21.60;29.50;;;;;;5054633;28;19908;-57
2021/03/30 04:34:47;;;;;;;;;;;21.60;29.60;;;;;;5052766;28;19909;-54
2021/03/30 04:37:13;;;;;;;;;;;21.70;29.60;;;;;;5053805;28;19991;-56
2021/03/30 04:39:38;;;;;;;;;;;21.60;29.60;;;;;;5054109;28;19959;-56
2021/03/30 04:42:04;;;;;;;;;;;21.60;29.60;;;;;;5052885;28;19917;-53
2021/03/30 04:44:30;;;;;;;;;;;21.60;29.60;;;;;;5054971;28;20328;-49
2021/03/30 04:46:57;;;;;;;;;;;21.60;29.60;;;;;;5053897;28;19963;-57
2021/03/30 04:49:22;;;;;;;;;;;21.60;29.60;;;;;;5054872;28;20247;-56
2021/03/30 04:51:48;;;;;;;;;;;21.60;29.60;;;;;;5054299;28;19909;-53
2021/03/30 04:54:14;;;;;;;;;;;21.60;29.60;;;;;;5054304;28;20003;-61
2021/03/30 04:56:39;;;;;;;;;;;21.60;29.70;;;;;;5051617;28;19920;-54
2021/03/30 04:59:05;;;;;;;;;;;21.60;29.70;;;;;;5054370;28;19962;-55
2021/03/30 05:01:31;;;;;;;;;;;21.60;29.70;;;;;;5054475;28;20255;-54
2021/03/30 05:03:57;;;;;;;;;;;21.60;29.70;;;;;;5054180;28;19912;-51
2021/03/30 05:06:22;;;;;;;;;;;21.50;29.60;;;;;;5051546;28;20264;-54
2021/03/30 05:08:48;;;;;;;;;;;21.50;29.60;;;;;;5053839;28;20249;-57
2021/03/30 05:11:14;;;;;;;;;;;21.60;29.70;;;;;;5052985;28;19909;-52
2021/03/30 05:13:39;;;;;;;;;;;21.50;29.60;;;;;;5054578;28;19923;-48
2021/03/30 05:16:05;;;;;;;;;;;21.60;29.70;;;;;;5054144;28;20003;-51
2021/03/30 05:18:31;;;;;;;;;;;21.50;29.60;;;;;;5054560;28;20252;-55
2021/03/30 05:20:56;;;;;;;;;;;21.50;29.60;;;;;;5053475;28;19908;-54
2021/03/30 05:23:22;;;;;;;;;;;21.50;29.60;;;;;;5053992;28;19920;-55
2021/03/30 05:25:48;;;;;;;;;;;21.50;29.70;;;;;;5053410;28;19916;-55
2021/03/30 05:28:13;;;;;;;;;;;21.50;29.70;;;;;;5054296;28;19952;-53
2021/03/30 05:30:39;;;;;;;;;;;21.50;29.70;;;;;;5053389;28;19923;-58
2021/03/30 05:33:05;;;;;;;;;;;21.50;29.70;;;;;;5054501;28;20015;-54
2021/03/30 05:35:31;;;;;;;;;;;21.50;29.70;;;;;;5053420;28;19909;-55
2021/03/30 05:37:56;;;;;;;;;;;21.50;29.70;;;;;;5053309;28;19917;-53
2021/03/30 05:40:22;;;;;;;;;;;21.50;29.70;;;;;;5053378;28;20264;-53
2021/03/30 05:42:48;;;;;;;;;;;21.50;29.70;;;;;;5053645;28;19920;-53
2021/03/30 05:45:15;;;;;;;;;;;21.50;29.80;;;;;;5050239;28;19963;-55
2021/03/30 05:47:41;;;;;;;;;;;21.50;29.80;;;;;;5053811;28;20007;-57
2021/03/30 05:50:12;;;;;;;;;;;21.40;29.80;;;;;;5053628;28;19995;-51
2021/03/30 05:55:09;;;;;;;;;;;21.40;29.80;;;;;;5056656;28;19908;-54
2021/03/30 05:57:35;;;;;;;;;;;21.40;29.80;;;;;;5058054;28;19927;-54
2021/03/30 06:00:02;;;;;;;;;;;21.40;29.80;;;;;;5057305;28;20319;-53
2021/03/30 06:02:41;;;;;;;;;;;21.40;29.80;;;;;;5057589;28;19923;-58
2021/03/30 06:05:07;;;;;;;;;;;21.40;29.80;;;;;;5057527;28;19908;-54
2021/03/30 06:07:36;;;;;;;;;;;21.40;29.80;;;;;;5057047;28;19919;-52
2021/03/30 06:10:02;;;;;;;;;;;21.40;29.80;;;;;;5057086;28;19950;-57
2021/03/30 06:12:27;;;;;;;;;;;21.40;29.80;;;;;;5048367;28;19909;-55
2021/03/30 06:14:59;;;;;;;;;;;21.40;29.90;;;;;;5056605;28;19909;-55
2021/03/30 06:17:24;;;;;;;;;;;21.40;29.90;;;;;;5057102;28;20232;-55
2021/03/30 06:19:51;;;;;;;;;;;21.40;29.90;;;;;;5056554;28;19920;-54
2021/03/30 06:22:18;;;;;;;;;;;21.40;29.90;;;;;;5056766;28;19925;-52
2021/03/30 06:24:44;;;;;;;;;;;21.40;29.90;;;;;;5057038;28;19925;-56
2021/03/30 06:27:09;;;;;;;;;;;21.40;29.90;;;;;;5072852;28;19970;-55
2021/03/30 06:29:36;;;;;;;;;;;21.40;29.90;;;;;;5066003;28;20015;-53
2021/03/30 06:32:03;;;;;;;;;;;21.40;30.00;;;;;;5053582;28;20340;-55
2021/03/30 06:34:29;;;;;;;;;;;21.40;30.00;;;;;;5057081;28;19991;-54
2021/03/30 06:36:56;;;;;;;;;;;21.40;30.00;;;;;;5055352;28;19947;-50
2021/03/30 06:39:47;;;;;;;;;;;21.40;30.00;;;;;;5056805;28;19960;-55
2021/03/30 06:42:26;;;;;;;;;;;21.40;30.00;;;;;;5052478;28;20235;-57
2021/03/30 06:44:53;;;;;;;;;;;21.50;30.00;;;;;;5055923;28;19915;-58
2021/03/30 06:47:19;;;;;;;;;;;21.50;30.10;;;;;;5053597;28;20015;-58
2021/03/30 06:50:01;;;;;;;;;;;21.50;30.00;;;;;;5055505;28;19908;-56
2021/03/30 06:52:28;;;;;;;;;;;21.60;30.00;;;;;;5056971;28;20308;-57
2021/03/30 06:54:54;;;;;;;;;;;21.60;30.00;;;;;;5057483;28;19916;-54
2021/03/30 06:57:39;;;;;;;;;;;21.70;30.00;;;;;;5055229;28;19935;-57
2021/03/30 07:00:05;;;;;;;;;;;21.70;30.00;;;;;;5054018;28;19944;-53
2021/03/30 07:02:31;;;;;;;;;;;21.70;29.90;;;;;;5055027;28;19952;-56
2021/03/30 07:04:57;;;;;;;;;;;21.80;29.90;;;;;;5066346;28;19909;-59
2021/03/30 07:07:23;;;;;;;;;;;21.80;29.90;;;;;;5060923;28;20287;-51
2021/03/30 07:09:55;;;;;;;;;;;21.80;29.80;;;;;;5056545;28;19913;-59
2021/03/30 07:12:23;;;;;;;;;;;21.90;29.80;;;;;;5054326;28;19936;-59
2021/03/30 07:14:49;;;;;;;;;;;21.90;29.80;;;;;;5055833;28;19920;-50
2021/03/30 07:17:21;;;;;;;;;;;21.90;29.80;;;;;;5056714;28;19916;-58
2021/03/30 07:19:47;;;;;;;;;;;21.90;29.80;;;;;;5054959;28;20250;-51
2021/03/30 07:22:13;;;;;;;;;;;22.00;29.80;;;;;;5053897;28;20331;-58
2021/03/30 07:24:48;;;;;;;;;;;22.00;29.80;;;;;;5055353;28;19917;-53
2021/03/30 07:27:16;;;;;;;;;;;22.00;29.80;;;;;;5056462;28;19908;-51
2021/03/30 07:29:45;;;;;;;;;;;22.00;29.80;;;;;;5056692;28;19912;-55
2021/03/30 07:32:23;;;;;;;;;;;22.00;29.70;;;;;;5055083;28;20320;-54
2021/03/30 07:35:02;;;;;;;;;;;22.00;29.70;;;;;;5055993;28;19912;-52
2021/03/30 07:37:33;;;;;;;;;;;22.00;29.70;;;;;;5053125;28;19908;-54
2021/03/30 07:40:00;;;;;;;;;;;22.10;29.80;;;;;;5056394;28;19919;-48
2021/03/30 07:42:26;;;;;;;;;;;22.10;29.70;;;;;;5055429;28;19920;-61
2021/03/30 07:44:53;;;;;;;;;;;22.10;29.70;;;;;;5056109;28;19916;-53
2021/03/30 07:47:19;;;;;;;;;;;22.10;29.70;;;;;;5051216;28;19996;-57
2021/03/30 07:49:48;;;;;;;;;;;22.10;29.70;;;;;;5063189;28;19935;-58
2021/03/30 07:52:16;;;;;;;;;;;22.10;29.70;;;;;;5045914;28;19927;-55
2021/03/30 07:55:02;;;;;;;;;;;22.20;29.70;;;;;;5055210;28;19908;-52
2021/03/30 07:57:46;;;;;;;;;;;22.20;29.70;;;;;;5054658;28;19970;-59
2021/03/30 08:00:32;;;;;;;;;;;22.20;29.70;;;;;;5051261;28;19915;-56
2021/03/30 08:02:59;;;;;;;;;;;22.20;29.70;;;;;;5052159;28;20263;-57
2021/03/30 08:05:28;;;;;;;;;;;22.20;29.70;;;;;;5054369;28;19908;-56
2021/03/30 08:07:56;;;;;;;;;;;22.20;29.70;;;;;;5054485;28;19908;-56
2021/03/30 08:10:42;;;;;;;;;;;22.20;29.70;;;;;;5054620;28;19908;-57
2021/03/30 08:13:23;;;;;;;;;;;22.20;29.70;;;;;;5054459;28;19908;-55
2021/03/30 08:15:54;;;;;;;;;;;22.20;29.70;;;;;;5048902;28;19908;-53
2021/03/30 08:18:20;;;;;;;;;;;22.20;29.70;;;;;;5054658;28;19912;-57
2021/03/30 08:20:50;;;;;;;;;;;22.20;29.70;;;;;;5053201;28;19913;-57
2021/03/30 08:23:17;;;;;;;;;;;22.20;29.80;;;;;;5053338;28;20310;-54
2021/03/30 08:25:46;;;;;;;;;;;22.30;29.80;;;;;;5049998;28;19916;-57
2021/03/30 08:28:31;;;;;;;;;;;22.30;29.80;;;;;;5051447;28;20352;-56
2021/03/30 08:30:57;;;;;;;;;;;22.30;29.80;;;;;;5036822;28;19909;-59
2021/03/30 08:33:24;;;;;;;;;;;22.30;29.80;;;;;;5053783;28;19966;-55
2021/03/30 08:35:50;;;;;;;;;;;22.40;29.90;;;;;;5055304;28;19912;-56
2021/03/30 08:38:36;;;;;;;;;;;22.40;29.90;;;;;;5054901;28;20228;-56
2021/03/30 08:41:01;;;;;;;;;;;22.40;29.90;;;;;;5043667;28;20003;-57
2021/03/30 08:43:27;;;;;;;;;;;22.40;30.00;;;;;;5054263;28;20007;-53
2021/03/30 08:46:00;;;;;;;;;;;22.50;30.00;;;;;;5054403;28;19920;-54
2021/03/30 08:48:32;;;;;;;;;;;22.50;30.00;;;;;;5054637;28;20008;-51
2021/03/30 08:50:59;;;;;;;;;;;22.50;30.00;;;;;;5054499;28;19919;-58
2021/03/30 08:53:29;;;;;;;;;;;22.60;30.00;;;;;;5054175;28;19951;-56
2021/03/30 08:55:55;;;;;;;;;;;22.60;30.10;;;;;;5054500;28;19909;-57
2021/03/30 08:58:24;;;;;;;;;;;22.60;30.10;;;;;;5052229;28;20359;-60
2021/03/30 09:00:50;;;;;;;;;;;22.70;30.10;;;;;;5053822;28;19974;-58
2021/03/30 09:03:23;;;;;;;;;;;22.60;30.10;;;;;;5054888;28;20320;-58
2021/03/30 09:05:49;;;;;;;;;;;22.60;30.10;;;;;;5053176;28;19951;-59
2021/03/30 09:08:32;;;;;;;;;;;22.70;30.10;;;;;;5035448;28;19952;-58
2021/03/30 09:11:12;;;;;;;;;;;22.70;30.10;;;;;;5035005;28;19909;-55
2021/03/30 09:13:38;;;;;;;;;;;22.70;30.20;;;;;;5051076;28;19908;-57
2021/03/30 09:16:09;;;;;;;;;;;22.70;30.10;;;;;;5054850;28;19909;-59
2021/03/30 09:18:35;;;;;;;;;;;22.70;30.20;;;;;;5054085;28;19913;-54
2021/03/30 09:21:08;;;;;;;;;;;22.70;30.20;;;;;;5054277;28;19950;-53
2021/03/30 09:23:35;;;;;;;;;;;22.70;30.20;;;;;;5050926;28;19955;-57
2021/03/30 09:26:08;;;;;;;;;;;22.70;30.20;;;;;;5057128;28;20343;-53
2021/03/30 09:28:34;;;;;;;;;;;22.70;30.20;;;;;;5060957;28;20315;-55
2021/03/30 09:31:00;;;;;;;;;;;22.70;30.30;;;;;;5060849;28;19948;-60
2021/03/30 09:33:26;;;;;;;;;;;22.70;30.30;;;;;;5059867;28;19909;-54
2021/03/30 09:35:51;;;;;;;;;;;22.70;30.30;;;;;;5061109;28;19909;-54
2021/03/30 09:38:17;;;;;;;;;;;22.80;30.40;;;;;;5060636;28;20341;-56
2021/03/30 09:40:46;;;;;;;;;;;22.80;30.30;;;;;;5050726;28;19908;-56
2021/03/30 09:43:13;;;;;;;;;;;22.70;30.20;;;;;;5059170;28;19917;-54
2021/03/30 09:45:40;;;;;;;;;;;22.80;30.30;;;;;;5059795;28;20362;-54
2021/03/30 09:48:07;;;;;;;;;;;22.80;30.40;;;;;;5060119;28;19913;-54
2021/03/30 09:50:33;;;;;;;;;;;22.80;30.40;;;;;;5060320;28;20367;-54
2021/03/30 09:53:07;;;;;;;;;;;22.80;30.40;;;;;;5060181;28;19908;-53
2021/03/30 09:55:40;;;;;;;;;;;22.80;30.40;;;;;;5060850;28;19919;-52
2021/03/30 09:58:12;;;;;;;;;;;22.90;30.40;;;;;;5060248;28;19908;-52
2021/03/30 10:00:39;;;;;;;;;;;22.90;30.40;;;;;;5060894;28;19909;-54
2021/03/30 10:03:06;;;;;;;;;;;22.90;30.40;;;;;;5059969;28;19948;-60
2021/03/30 10:05:32;;;;;;;;;;;22.90;30.40;;;;;;5059351;28;20244;-56
2021/03/30 10:07:58;;;;;;;;;;;22.90;30.40;;;;;;5060634;28;19928;-52
2021/03/30 10:10:24;;;;;;;;;;;23.00;30.40;;;;;;5059530;28;19916;-57
2021/03/30 10:12:53;;;;;;;;;;;23.00;30.40;;;;;;5059764;28;19920;-54
2021/03/30 10:15:28;;;;;;;;;;;23.00;30.40;;;;;;5060279;28;19909;-57
2021/03/30 10:17:55;;;;;;;;;;;23.00;30.40;;;;;;5059935;28;20255;-59
2021/03/30 10:20:20;;;;;;;;;;;23.00;30.30;;;;;;5060415;28;20031;-57
2021/03/30 10:22:47;;;;;;;;;;;23.00;30.30;;;;;;5059843;28;20011;-59
2021/03/30 10:25:13;;;;;;;;;;;23.00;30.30;;;;;;5060013;28;20019;-60
2021/03/30 10:27:46;;;;;;;;;;;23.10;30.30;;;;;;5058795;28;19960;-56
2021/03/30 10:30:12;;;;;;;;;;;23.10;30.30;;;;;;5059778;28;19912;-54
2021/03/30 10:32:49;;;;;;;;;;;23.10;30.30;;;;;;5059450;28;19991;-56
2021/03/30 10:35:15;;;;;;;;;;;23.10;30.30;;;;;;5058981;28;19909;-57
2021/03/30 10:37:41;;;;;;;;;;;23.10;30.30;;;;;;5057026;28;19908;-58
2021/03/30 10:40:07;;;;;;;;;;;23.10;30.30;;;;;;5054515;28;19910;-56
2021/03/30 10:42:37;;;;;;;;;;;23.10;30.20;;;;;;5054466;28;19939;-63
2021/03/30 10:45:06;;;;;;;;;;;23.20;30.20;;;;;;5054971;28;19909;-56
2021/03/30 10:47:33;;;;;;;;;;;23.20;30.20;;;;;;5055086;28;19909;-53
2021/03/30 10:49:59;;;;;;;;;;;23.20;30.20;;;;;;5056833;28;20351;-59
2021/03/30 10:52:32;;;;;;;;;;;23.20;30.10;;;;;;5055874;28;19958;-59
2021/03/30 10:54:59;;;;;;;;;;;23.20;30.10;;;;;;5056386;28;19920;-57
2021/03/30 10:57:30;;;;;;;;;;;23.20;30.00;;;;;;5055511;28;19909;-57
2021/03/30 10:59:56;;;;;;;;;;;23.20;30.10;;;;;;5047659;28;19952;-57
2021/03/30 11:02:22;;;;;;;;;;;23.10;30.10;;;;;;5055024;28;20014;-56
2021/03/30 11:04:48;;;;;;;;;;;23.10;30.10;;;;;;5056718;28;20246;-54
2021/03/30 11:07:14;;;;;;;;;;;23.00;30.00;;;;;;5054807;28;19999;-54
2021/03/30 11:09:41;;;;;;;;;;;23.00;30.00;;;;;;5054141;28;20052;-56
2021/03/30 11:12:07;;;;;;;;;;;23.00;29.90;;;;;;5055709;28;19912;-51
2021/03/30 11:14:32;;;;;;;;;;;23.10;29.90;;;;;;5054537;28;19908;-51
2021/03/30 11:16:58;;;;;;;;;;;23.10;29.80;;;;;;5046891;28;19921;-55
2021/03/30 11:19:25;;;;;;;;;;;23.20;29.80;;;;;;5052456;28;19966;-52
2021/03/30 11:21:51;;;;;;;;;;;23.20;29.70;;;;;;5038782;28;19921;-55
2021/03/30 11:24:22;;;;;;;;;;;23.30;29.70;;;;;;5053228;28;20250;-60
2021/03/30 11:26:51;;;;;;;;;;;23.30;29.60;;;;;;5056313;28;19921;-56
2021/03/30 11:29:23;;;;;;;;;;;23.30;29.60;;;;;;5052125;28;19927;-52
2021/03/30 11:36:58;;;;;;;;;;;23.40;29.50;;;;;;5052444;28;19912;-59
2021/03/30 11:39:23;;;;;;;;;;;23.50;29.50;;;;;;5055075;28;19948;-57
2021/03/30 11:41:49;;;;;;;;;;;23.50;29.40;;;;;;5055963;28;19970;-57
2021/03/30 11:44:15;;;;;;;;;;;23.60;29.40;;;;;;5051878;28;19919;-54
2021/03/30 11:46:41;;;;;;;;;;;23.60;29.40;;;;;;5052021;28;19909;-54
2021/03/30 11:49:07;;;;;;;;;;;23.60;29.30;;;;;;5053163;28;19963;-58
2021/03/30 11:51:33;;;;;;;;;;;23.60;29.30;;;;;;5046656;28;19954;-57
2021/03/30 11:53:59;;;;;;;;;;;23.70;29.30;;;;;;5045513;28;20278;-52
2021/03/30 11:56:24;;;;;;;;;;;23.80;29.40;;;;;;5047250;28;19920;-53
2021/03/30 11:58:50;;;;;;;;;;;23.70;29.40;;;;;;5051046;28;19909;-48
2021/03/30 12:01:16;;;;;;;;;;;23.80;29.40;;;;;;5050814;28;20320;-55
2021/03/30 12:03:41;;;;;;;;;;;23.80;29.30;;;;;;5052191;28;19920;-56
2021/03/30 12:06:07;;;;;;;;;;;23.90;29.30;;;;;;5046647;28;19909;-54
2021/03/30 12:08:33;;;;;;;;;;;23.90;29.20;;;;;;5049793;28;20320;-56
2021/03/30 12:10:59;;;;;;;;;;;23.90;29.10;;;;;;5049512;28;19962;-56
2021/03/30 12:13:25;;;;;;;;;;;23.90;29.10;;;;;;5050404;28;19920;-53
2021/03/30 12:15:51;;;;;;;;;;;23.90;29.00;;;;;;5050564;28;19909;-57
2021/03/30 12:18:17;;;;;;;;;;;24.00;29.00;;;;;;5044538;28;19928;-55
2021/03/30 12:20:42;;;;;;;;;;;24.00;28.90;;;;;;5050989;28;19917;-50
2021/03/30 12:23:08;;;;;;;;;;;24.00;28.90;;;;;;5053777;28;19943;-52
2021/03/30 12:25:34;;;;;;;;;;;24.00;28.80;;;;;;5053194;28;20007;-59
2021/03/30 12:28:00;;;;;;;;;;;24.10;28.80;;;;;;5053777;28;19916;-57
2021/03/30 12:30:26;;;;;;;;;;;24.10;28.80;;;;;;5051175;28;19912;-55
2021/03/30 12:32:52;;;;;;;;;;;24.10;28.80;;;;;;5055671;28;20062;-60
2021/03/30 12:35:17;;;;;;;;;;;24.10;28.70;;;;;;5053622;28;19909;-55
2021/03/30 12:37:43;;;;;;;;;;;24.20;28.80;;;;;;5051680;28;19912;-61
2021/03/30 12:40:09;;;;;;;;;;;24.20;28.80;;;;;;5050427;28;19908;-55
2021/03/30 12:42:35;;;;;;;;;;;24.20;28.80;;;;;;5052697;28;20015;-57
2021/03/30 12:45:01;;;;;;;;;;;24.20;28.70;;;;;;5049724;28;19921;-59
2021/03/30 12:47:26;;;;;;;;;;;24.20;28.70;;;;;;5047897;28;20063;-53
2021/03/30 12:49:52;;;;;;;;;;;24.20;28.80;;;;;;5029585;28;19916;-50
2021/03/30 12:52:18;;;;;;;;;;;24.20;28.80;;;;;;5052750;28;20000;-54
2021/03/30 12:54:44;;;;;;;;;;;24.30;28.80;;;;;;5051664;28;19909;-57
2021/03/30 12:57:10;;;;;;;;;;;24.30;28.90;;;;;;5051235;28;19938;-56
2021/03/30 12:59:35;;;;;;;;;;;24.30;28.90;;;;;;5047703;28;19909;-59
2021/03/30 13:02:01;;;;;;;;;;;24.30;28.90;;;;;;5046695;28;20292;-56
2021/03/30 13:04:27;;;;;;;;;;;24.30;28.90;;;;;;5049420;28;19952;-57
2021/03/30 13:06:52;;;;;;;;;;;24.30;28.90;;;;;;5048562;28;19919;-54
2021/03/30 13:09:18;;;;;;;;;;;24.30;28.90;;;;;;5048960;28;19955;-54
2021/03/30 13:11:44;;;;;;;;;;;24.30;28.90;;;;;;5048259;28;21945;-54
2021/03/30 13:14:10;;;;;;;;;;;24.40;28.90;;;;;;5053336;28;19932;-58
2021/03/30 13:16:35;;;;;;;;;;;24.40;28.80;;;;;;5045010;28;19966;-56
2021/03/30 13:19:01;;;;;;;;;;;24.40;28.80;;;;;;5048724;28;19996;-58
2021/03/30 13:21:27;;;;;;;;;;;24.40;28.80;;;;;;5048428;28;19924;-54
2021/03/30 13:23:54;;;;;;;;;;;24.40;28.70;;;;;;5049397;28;19962;-51
2021/03/30 13:26:20;;;;;;;;;;;24.40;28.70;;;;;;5049379;28;19925;-56
2021/03/30 13:28:46;;;;;;;;;;;24.50;28.60;;;;;;5047274;28;19931;-57
2021/03/30 13:31:11;;;;;;;;;;;24.50;28.60;;;;;;5051948;28;20660;-56
2021/03/30 13:33:37;;;;;;;;;;;24.50;28.50;;;;;;5048079;28;20338;-56
2021/03/30 13:36:03;;;;;;;;;;;24.50;28.40;;;;;;5052667;28;19985;-55
2021/03/30 13:38:29;;;;;;;;;;;24.50;28.40;;;;;;5049665;28;19975;-51
2021/03/30 13:40:58;;;;;;;;;;;24.50;28.30;;;;;;5051840;28;19917;-57
2021/03/30 13:43:24;;;;;;;;;;;24.50;28.30;;;;;;5038367;28;19925;-58
2021/03/30 13:45:49;;;;;;;;;;;24.60;28.30;;;;;;5050442;28;19999;-55
2021/03/30 13:48:15;;;;;;;;;;;24.60;28.30;;;;;;5051101;28;20011;-57
2021/03/30 13:50:41;;;;;;;;;;;24.50;28.20;;;;;;5051707;28;19908;-55
2021/03/30 13:53:06;;;;;;;;;;;24.60;28.20;;;;;;5052771;28;20247;-54
2021/03/30 13:55:33;;;;;;;;;;;24.60;28.20;;;;;;5051532;28;19908;-59
2021/03/30 13:57:59;;;;;;;;;;;24.50;28.10;;;;;;5049595;28;20350;-58
2021/03/30 14:00:25;;;;;;;;;;;24.60;28.10;;;;;;5055534;28;19912;-54
2021/03/30 14:02:50;;;;;;;;;;;24.50;28.00;;;;;;5048478;28;20340;-60
2021/03/30 14:05:16;;;;;;;;;;;24.60;28.40;;;;;;5051665;28;19928;-55
2021/03/30 14:07:42;;;;;;;;;;;24.60;27.90;;;;;;5052150;28;20033;-57
2021/03/30 14:10:08;;;;;;;;;;;24.60;27.90;;;;;;5049808;28;20378;-57
2021/03/30 14:12:39;;;;;;;;;;;24.60;27.90;;;;;;5052732;28;19920;-50
2021/03/30 14:15:17;;;;;;;;;;;24.50;27.70;;;;;;5055939;28;19909;-57
2021/03/30 14:17:44;;;;;;;;;;;24.60;27.70;;;;;;5054243;28;19908;-60
2021/03/30 14:20:13;;;;;;;;;;;24.60;27.70;;;;;;5052734;28;20291;-56
2021/03/30 14:22:40;;;;;;;;;;;24.60;27.60;;;;;;5052001;28;19920;-57
2021/03/30 14:25:15;;;;;;;;;;;24.60;27.60;;;;;;5054284;28;19917;-53
2021/03/30 14:27:41;;;;;;;;;;;24.60;27.60;;;;;;5053595;28;19962;-57